Time;durP1;ratioP1;P1;durP2;ratioP2;P2;SDS_P1;SDS_P2;PMS_P1;PMS_P2;Temp;Humidity;BMP_temperature;BMP_pressure;BME280_temperature;BME280_humidity;BME280_pressure;Samples;Min_cycle;Max_cycle;Signal;HPM_P1;HPM_P2
2022/02/08 00:01:00;;;;;;;8.52;2.47;;;;;;;3.27;55.56;96582.97;5021515;28;20029;-66
2022/02/08 00:03:25;;;;;;;7.55;2.40;;;;;;;3.98;54.30;96644.56;5015527;28;20033;-67
2022/02/08 00:06:13;;;;;;;7.32;2.70;;;;;;;4.33;53.88;96643.81;5012849;28;20061;-66
2022/02/08 00:08:39;;;;;;;10.70;2.38;;;;;;;3.14;56.78;96643.63;5012804;28;20040;-66
2022/02/08 00:11:05;;;;;;;7.50;2.38;;;;;;;3.81;54.71;96654.13;4995217;28;20112;-66
2022/02/08 00:13:30;;;;;;;7.95;2.40;;;;;;;3.44;56.41;96685.75;5012858;28;20026;-65
2022/02/08 00:15:56;;;;;;;10.18;3.03;;;;;;;3.61;56.31;96685.97;5020511;28;20091;-66
2022/02/08 00:18:21;;;;;;;7.32;2.55;;;;;;;3.48;55.93;96665.91;5029164;28;20032;-66
2022/02/08 00:20:47;;;;;;;6.65;2.45;;;;;;;3.44;55.90;96656.03;5031935;28;20032;-66
2022/02/08 00:23:12;;;;;;;12.82;2.60;;;;;;;3.64;54.97;96631.06;5032469;28;20040;-66
2022/02/08 00:25:37;;;;;;;6.13;2.60;;;;;;;4.47;52.72;96660.22;5032531;28;20029;-65
2022/02/08 00:28:03;;;;;;;8.43;2.47;;;;;;;3.47;55.86;96682.69;5032415;28;20478;-65
2022/02/08 00:30:29;;;;;;;8.45;2.60;;;;;;;4.24;53.96;96695.22;5030233;28;20038;-65
2022/02/08 00:32:55;;;;;;;9.93;3.05;;;;;;;4.53;52.55;96670.66;5032378;28;20037;-67
2022/02/08 00:35:20;;;;;;;7.55;2.40;;;;;;;4.41;53.38;96673.28;5032233;28;20034;-65
2022/02/08 00:37:45;;;;;;;9.15;2.58;;;;;;;4.45;53.35;96673.63;5032258;28;20025;-65
2022/02/08 00:40:11;;;;;;;11.52;2.80;;;;;;;4.70;52.09;96686.59;5031665;28;20021;-65
2022/02/08 00:42:37;;;;;;;7.57;2.72;;;;;;;4.11;53.39;96651.47;5032061;28;20504;-66
2022/02/08 00:47:40;;;;;;;6.05;2.30;;;;;;;3.88;53.53;96649.56;5022892;28;20095;-65
2022/02/08 00:50:08;;;;;;;8.25;2.90;;;;;;;3.91;54.35;96672.81;5031540;28;20033;-65
2022/02/08 00:52:35;;;;;;;6.95;2.67;;;;;;;4.07;54.49;96689.81;5031785;28;20051;-68
2022/02/08 00:55:02;;;;;;;7.70;2.85;;;;;;;4.65;52.63;96665.38;5014085;28;20429;-65
2022/02/08 00:57:28;;;;;;;12.27;2.97;;;;;;;4.22;53.96;96694.66;5031700;28;20025;-65
2022/02/08 00:59:54;;;;;;;5.63;2.75;;;;;;;3.42;54.29;96598.38;5026350;28;20091;-65
2022/02/08 01:02:19;;;;;;;8.48;2.65;;;;;;;3.80;53.92;96639.38;5002210;28;20029;-65
2022/02/08 01:04:52;;;;;;;8.82;2.58;;;;;;;4.47;52.07;96658.41;5031472;28;20297;-65
2022/02/08 01:07:18;;;;;;;12.77;3.00;;;;;;;4.63;52.63;96702.53;5031645;28;20100;-65
2022/02/08 01:09:52;;;;;;;7.30;2.78;;;;;;;4.62;52.44;96681.66;5031472;28;20100;-65
2022/02/08 01:12:19;;;;;;;9.90;3.13;;;;;;;4.95;51.40;96695.06;5031472;28;20022;-65
2022/02/08 01:14:47;;;;;;;15.57;2.42;;;;;;;4.89;51.58;96692.56;5028071;28;20417;-65
2022/02/08 01:17:14;;;;;;;7.60;2.40;;;;;;;5.07;51.71;96694.28;5009433;28;20017;-66
2022/02/08 01:19:48;;;;;;;9.75;2.60;;;;;;;4.95;50.88;96692.44;5030846;28;20036;-65
2022/02/08 01:22:13;;;;;;;6.20;3.10;;;;;;;5.11;50.96;96706.75;5013505;28;20175;-65
2022/02/08 01:24:39;;;;;;;7.30;2.90;;;;;;;4.87;50.71;96668.28;5031307;28;20060;-64
2022/02/08 01:27:09;;;;;;;6.35;2.22;;;;;;;4.82;50.96;96652.34;5013686;28;20032;-65
2022/02/08 01:29:39;;;;;;;7.43;3.38;;;;;;;4.96;50.52;96674.78;5029788;28;20021;-65
2022/02/08 01:32:53;;;;;;;8.23;2.90;;;;;;;5.04;50.57;96692.91;5025310;28;20021;-65
2022/02/08 01:40:13;;;;;;;5.68;2.50;;;;;;;5.04;50.59;96690.28;5030936;28;20036;-65
2022/02/08 01:42:52;;;;;;;7.45;2.30;;;;;;;4.41;50.55;96585.53;5013310;28;20032;-65
2022/02/08 01:48:41;;;;;;;7.10;2.58;;;;;;;4.99;51.09;96674.34;4994470;28;20030;-65
2022/02/08 01:51:08;;;;;;;6.75;2.65;;;;;;;5.16;50.53;96683.13;5013048;28;20121;-64
2022/02/08 01:53:34;;;;;;;5.70;2.03;;;;;;;5.28;50.39;96704.25;5030575;28;20482;-65
2022/02/08 01:56:00;;;;;;;5.53;2.20;;;;;;;5.32;50.75;96712.47;5013195;28;20025;-65
2022/02/08 01:58:26;;;;;;;10.50;2.97;;;;;;;5.38;50.80;96704.47;5012977;28;20036;-65
2022/02/08 02:00:51;;;;;;;8.27;2.75;;;;;;;5.27;50.82;96667.53;5019777;28;20030;-65
2022/02/08 02:03:17;;;;;;;10.40;2.17;;;;;;;5.55;50.74;96685.25;5009158;28;20087;-65
2022/02/08 02:05:44;;;;;;;6.43;1.60;;;;;;;5.73;50.04;96682.44;5030707;28;20055;-65
2022/02/08 02:08:09;;;;;;;7.18;1.92;;;;;;;5.95;50.13;96691.34;5030662;28;20217;-65
2022/02/08 02:10:36;;;;;;;4.20;2.10;;;;;;;6.14;49.78;96686.69;5012603;28;20087;-65
2022/02/08 02:13:08;;;;;;;7.55;1.70;;;;;;;6.39;48.97;96686.28;5030665;28;20108;-65
2022/02/08 02:15:34;;;;;;;9.38;1.88;;;;;;;6.68;48.62;96702.09;5007041;28;20040;-65
2022/02/08 02:17:59;;;;;;;7.35;1.60;;;;;;;6.39;48.38;96653.78;5030572;28;20025;-65
2022/02/08 02:20:25;;;;;;;9.52;1.80;;;;;;;6.11;47.23;96593.88;5012369;28;20052;-65
2022/02/08 02:22:51;;;;;;;7.43;2.10;;;;;;;6.83;47.30;96689.09;5030720;28;20437;-65
2022/02/08 02:25:21;;;;;;;5.93;2.50;;;;;;;6.95;46.56;96686.38;5030513;28;20061;-66
2022/02/08 02:27:49;;;;;;;8.77;2.13;;;;;;;7.14;45.87;96685.06;5012969;28;20393;-65
2022/02/08 02:30:15;;;;;;;6.22;1.90;;;;;;;7.17;46.01;96671.34;5007503;28;20422;-65
2022/02/08 02:32:40;;;;;;;8.75;2.20;;;;;;;7.29;46.13;96666.72;5018808;28;20073;-65
2022/02/08 02:35:06;;;;;;;7.43;1.90;;;;;;;6.79;46.00;96685.34;4993121;28;20030;-65
2022/02/08 02:37:31;;;;;;;4.25;1.42;;;;;;;7.01;46.71;96694.16;5010637;28;20018;-65
2022/02/08 02:39:57;;;;;;;10.05;2.05;;;;;;;7.15;45.32;96691.16;5010539;28;20376;-65
2022/02/08 02:42:22;;;;;;;4.78;1.83;;;;;;;7.33;45.85;96692.72;5010535;28;20040;-65
2022/02/08 02:44:48;;;;;;;8.55;1.52;;;;;;;7.26;45.45;96680.44;5011438;28;20034;-66
2022/02/08 02:47:14;;;;;;;5.40;1.30;;;;;;;6.70;45.19;96670.91;5022328;28;20026;-68
2022/02/08 02:49:39;;;;;;;4.70;1.63;;;;;;;6.40;45.85;96703.78;5033336;28;20029;-65
2022/02/08 02:52:07;;;;;;;8.77;1.85;;;;;;;6.29;47.27;96693.25;5034214;28;20026;-65
2022/02/08 02:54:33;;;;;;;4.03;1.25;;;;;;;6.40;46.32;96672.06;5034433;28;20174;-64
2022/02/08 02:57:00;;;;;;;8.85;1.60;;;;;;;6.68;46.37;96663.22;5034385;28;20493;-65
2022/02/08 02:59:26;;;;;;;3.88;1.52;;;;;;;7.10;45.75;96681.28;5033747;28;20147;-65
2022/02/08 03:04:41;;;;;;;6.00;1.70;;;;;;;6.97;44.83;96603.09;5034023;28;20041;-65
2022/02/08 03:18:33;;;;;;;3.65;1.13;;;;;;;7.29;45.15;96714.38;5022119;28;20029;-65
2022/02/08 03:21:00;;;;;;;5.13;1.42;;;;;;;7.44;44.68;96697.91;5012636;28;20504;-65
2022/02/08 03:23:27;;;;;;;6.85;1.58;;;;;;;7.60;44.62;96709.47;5013238;28;20402;-65
2022/02/08 03:25:52;;;;;;;5.32;1.40;;;;;;;7.23;44.44;96653.69;4996064;28;20503;-66
2022/02/08 03:28:18;;;;;;;4.68;1.63;;;;;;;7.13;45.02;96688.75;5013762;28;20037;-65
2022/02/08 03:30:43;;;;;;;6.75;1.38;;;;;;;7.18;44.75;96685.38;5016015;28;20437;-66
2022/02/08 03:33:09;;;;;;;5.60;1.38;;;;;;;7.65;44.54;96725.44;5033084;28;20057;-65
2022/02/08 03:35:34;;;;;;;3.90;1.55;;;;;;;7.34;44.90;96676.59;5015560;28;20113;-65
2022/02/08 03:38:03;;;;;;;8.02;1.38;;;;;;;7.90;44.51;96726.78;5015550;28;20075;-65
2022/02/08 03:43:41;;;;;;;3.28;1.15;;;;;;;8.01;43.63;96734.59;5033388;28;20060;-67
2022/02/08 03:46:01;;;;;;;8.95;1.63;;;;;;;7.85;43.39;96732.03;5025477;28;20052;-66
2022/02/08 03:48:29;;;;;;;8.63;1.60;;;;;;;7.79;43.85;96705.47;5032596;28;20026;-67
2022/02/08 03:51:07;;;;;;;4.18;1.70;;;;;;;7.59;44.21;96715.81;5032834;28;20026;-67
2022/02/08 03:53:32;;;;;;;6.63;1.35;;;;;;;7.49;44.09;96707.75;5015345;28;20548;-67
2022/02/08 03:55:58;;;;;;;6.63;1.27;;;;;;;7.75;43.56;96700.91;5032584;28;20117;-67
2022/02/08 03:58:23;;;;;;;3.47;1.20;;;;;;;7.72;43.90;96694.25;5032786;28;20108;-67
2022/02/08 04:01:26;;;;;;;7.45;1.25;;;;;;;7.74;43.81;96721.31;5030634;28;20425;-66
2022/02/08 04:03:57;;;;;;;5.32;1.27;;;;;;;7.67;43.95;96722.53;5032145;28;20033;-67
2022/02/08 04:06:22;;;;;;;4.18;1.50;;;;;;;7.51;44.20;96689.75;5015175;28;20068;-66
2022/02/08 04:08:47;;;;;;;3.95;1.25;;;;;;;7.34;44.02;96667.84;5032545;28;20053;-66
2022/02/08 04:11:13;;;;;;;7.03;2.00;;;;;;;7.19;44.71;96732.75;5032428;28;20052;-66
2022/02/08 04:13:54;;;;;;;5.97;1.23;;;;;;;7.01;45.30;96723.25;5032802;28;20104;-66
2022/02/08 04:16:28;;;;;;;6.72;1.45;;;;;;;6.25;44.54;96627.69;5031321;28;20040;-68
2022/02/08 04:32:44;;;;;;;7.00;1.60;;;;;;;6.07;46.34;96686.00;5020671;28;20041;-67
2022/02/08 04:50:22;;;;;;;2.47;1.02;;;;;;;5.60;47.60;96715.19;5031451;28;20453;-67
2022/02/08 04:52:48;;;;;;;4.28;1.23;;;;;;;5.20;47.86;96709.88;5031898;28;20026;-66
2022/02/08 04:59:03;;;;;;;4.85;1.40;;;;;;;5.26;48.66;96734.50;5031913;28;20037;-66
2022/02/08 05:43:45;;;;;;;4.20;1.20;;;;;;;5.00;50.53;96662.75;5031078;28;20029;-68
2022/02/08 05:48:44;;;;;;;5.85;1.20;;;;;;;6.76;45.86;96672.63;5029646;28;20580;-70
2022/02/08 05:51:16;;;;;;;4.22;0.70;;;;;;;7.10;45.50;96683.94;5030908;28;20025;-70
2022/02/08 05:53:45;;;;;;;;;;;;;;;6.60;45.83;96705.91;5031524;28;20028;-65
2022/02/08 05:56:12;;;;;;;4.88;1.60;;;;;;;6.23;46.04;96724.88;5031232;28;19913;-63
2022/02/08 05:58:41;;;;;;;4.88;1.27;;;;;;;5.35;48.12;96715.47;5030320;28;20056;-65
2022/02/08 06:01:06;;;;;;;4.68;1.30;;;;;;;5.72;46.66;96694.81;5013014;28;20021;-62
2022/02/08 06:03:32;;;;;;;2.78;1.00;;;;;;;5.60;47.74;96720.47;5030618;28;20017;-61
2022/02/08 06:05:57;;;;;;;4.32;0.73;;;;;;;5.60;47.08;96715.19;5030243;28;20032;-63
2022/02/08 06:08:23;;;;;;;5.10;1.50;;;;;;;5.40;47.58;96717.41;5019934;28;20026;-63
2022/02/08 06:10:56;;;;;;;2.72;0.95;;;;;;;5.29;47.07;96676.81;5030365;28;20022;-65
2022/02/08 06:13:22;;;;;;;5.00;1.10;;;;;;;5.74;47.27;96727.09;5012917;28;20601;-62
2022/02/08 06:15:50;;;;;;;4.25;1.40;;;;;;;5.87;46.68;96712.00;5030304;28;20025;-64
2022/02/08 06:18:16;;;;;;;5.13;1.58;;;;;;;5.72;47.59;96723.06;5030592;28;20018;-62
2022/02/08 06:20:41;;;;;;;5.43;1.60;;;;;;;5.49;47.51;96723.94;5016183;28;20032;-64
2022/02/08 06:23:07;;;;;;;5.60;1.27;;;;;;;5.09;48.09;96723.88;5028330;28;20021;-65
2022/02/08 06:25:33;;;;;;;4.20;1.30;;;;;;;5.28;47.95;96691.06;5032615;28;20030;-66
2022/02/08 06:27:58;;;;;;;7.70;1.70;;;;;;;5.69;47.01;96718.28;5034647;28;20079;-63
2022/02/08 06:30:24;;;;;;;7.97;1.33;;;;;;;5.18;48.31;96714.56;5033968;28;20030;-65
2022/02/08 06:32:53;;;;;;;5.28;1.00;;;;;;;4.88;49.26;96741.88;5034164;28;20108;-63
2022/02/08 06:35:23;;;;;;;4.82;1.23;;;;;;;5.40;47.76;96722.69;5034643;28;20104;-64
2022/02/08 06:37:49;;;;;;;3.63;0.93;;;;;;;5.39;48.12;96747.47;5031078;28;20061;-65
2022/02/08 06:40:15;;;;;;;4.05;1.38;;;;;;;5.55;47.53;96730.94;5013888;28;20029;-66
2022/02/08 06:42:43;;;;;;;4.30;0.75;;;;;;;5.05;49.06;96757.00;5033579;28;20029;-65
2022/02/08 06:45:09;;;;;;;4.28;1.30;;;;;;;4.98;48.97;96722.03;5033993;28;20083;-64
2022/02/08 06:47:39;;;;;;;5.32;1.65;;;;;;;5.37;47.91;96742.41;5016308;28;20051;-66
2022/02/08 06:50:06;;;;;;;6.45;1.50;;;;;;;5.63;47.81;96735.03;5034256;28;20049;-68
2022/02/08 06:52:32;;;;;;;2.67;0.80;;;;;;;5.11;48.77;96730.50;5034149;28;20022;-63
2022/02/08 06:54:58;;;;;;;4.57;1.10;;;;;;;3.62;49.34;96535.75;5003486;28;20459;-64
2022/02/08 06:57:24;;;;;;;7.28;1.30;;;;;;;5.68;47.12;96722.75;4996224;28;20030;-64
2022/02/08 06:59:52;;;;;;;8.93;1.40;;;;;;;5.75;46.96;96764.88;5013981;28;20475;-64
2022/02/08 07:02:19;;;;;;;5.45;1.38;;;;;;;5.58;47.35;96756.88;4996413;28;20033;-63
2022/02/08 07:04:44;;;;;;;2.75;0.82;;;;;;;5.25;48.27;96786.47;4996139;28;20021;-63
2022/02/08 07:07:12;;;;;;;6.88;1.60;;;;;;;5.32;48.17;96730.94;4996453;28;20471;-64
2022/02/08 07:09:39;;;;;;;3.67;1.25;;;;;;;5.73;47.43;96765.09;5021415;28;20021;-63
2022/02/08 07:12:04;;;;;;;5.18;1.20;;;;;;;6.01;46.42;96755.63;5010227;28;20064;-64
2022/02/08 07:14:32;;;;;;;4.20;1.27;;;;;;;6.19;46.40;96754.63;5033644;28;20478;-66
2022/02/08 07:16:57;;;;;;;6.15;1.70;;;;;;;6.89;45.02;96762.19;5015938;28;20017;-65
2022/02/08 07:19:23;;;;;;;5.13;1.30;;;;;;;6.30;45.45;96739.78;5033337;28;20022;-64
2022/02/08 07:21:49;;;;;;;5.68;1.20;;;;;;;5.63;46.32;96745.59;5033188;28;20025;-64
2022/02/08 07:24:16;;;;;;;7.68;1.20;;;;;;;6.46;45.38;96752.22;5027768;28;20030;-64
2022/02/08 07:26:42;;;;;;;8.13;1.70;;;;;;;6.30;45.28;96772.31;5015267;28;20026;-64
2022/02/08 07:29:08;;;;;;;11.00;1.73;;;;;;;5.83;46.29;96745.19;5032829;28;20504;-63
2022/02/08 07:31:39;;;;;;;8.32;1.98;;;;;;;6.42;44.74;96745.81;5031913;28;20071;-65
2022/02/08 07:34:20;;;;;;;4.72;1.38;;;;;;;6.21;45.43;96744.66;5033416;28;20432;-66
2022/02/08 07:36:55;;;;;;;3.65;1.27;;;;;;;6.43;44.34;96755.34;5015492;28;20049;-65
2022/02/08 07:39:35;;;;;;;5.07;1.40;;;;;;;6.78;43.58;96749.84;5027553;28;20063;-66
2022/02/08 07:42:00;;;;;;;4.00;1.30;;;;;;;6.44;44.52;96733.16;5015288;28;20025;-65
2022/02/08 07:44:25;;;;;;;6.07;1.48;;;;;;;6.63;44.88;96766.28;5033309;28;20071;-67
2022/02/08 07:46:51;;;;;;;5.63;1.42;;;;;;;6.60;44.71;96760.66;5033187;28;20136;-66
2022/02/08 07:49:16;;;;;;;6.43;1.52;;;;;;;6.92;44.26;96771.50;5014588;28;20053;-66
2022/02/08 07:51:42;;;;;;;4.90;1.70;;;;;;;6.45;43.92;96709.16;5032826;28;20025;-67
2022/02/08 07:54:08;;;;;;;4.35;1.17;;;;;;;7.61;42.50;96771.19;5028129;28;20025;-68
2022/02/08 07:56:33;;;;;;;5.28;2.13;;;;;;;7.41;42.93;96758.47;5015059;28;20029;-68
2022/02/08 07:59:00;;;;;;;10.77;1.92;;;;;;;6.85;42.17;96702.09;5014607;28;20025;-67
2022/02/08 08:01:26;;;;;;;5.15;1.40;;;;;;;6.78;43.33;96782.38;5032450;28;20108;-65
2022/02/08 08:03:51;;;;;;;3.13;1.25;;;;;;;6.82;43.37;96705.22;5032722;28;20097;-68
2022/02/08 08:06:18;;;;;;;4.22;1.65;;;;;;;7.79;41.18;96770.91;5014849;28;20029;-68
2022/02/08 08:08:43;;;;;;;4.45;1.33;;;;;;;7.62;41.34;96752.38;5010816;28;20141;-68
2022/02/08 08:11:14;;;;;;;3.80;1.48;;;;;;;7.98;40.60;96769.53;5014088;28;20014;-67
2022/02/08 08:13:47;;;;;;;3.72;1.88;;;;;;;8.14;39.78;96725.47;5014821;28;20094;-67
2022/02/08 08:16:19;;;;;;;4.72;2.00;;;;;;;7.64;40.29;96739.72;5032437;28;20466;-67
2022/02/08 08:19:19;;;;;;;18.90;2.67;;;;;;;7.56;41.05;96748.06;5014675;28;20052;-67
2022/02/08 08:21:31;;;;;;;6.00;1.40;;;;;;;8.04;39.50;96751.88;5031430;28;20133;-67
2022/02/08 08:23:57;;;;;;;4.05;1.42;;;;;;;7.39;40.50;96752.63;5010745;28;20109;-66
2022/02/08 08:26:22;;;;;;;2.03;0.98;;;;;;;6.81;41.99;96757.31;5014407;28;20025;-67
2022/02/08 08:28:48;;;;;;;4.80;1.60;;;;;;;7.10;41.23;96762.50;5014167;28;20421;-66
2022/02/08 08:31:14;;;;;;;6.80;1.63;;;;;;;6.90;41.02;96725.97;5014316;28;20025;-66
2022/02/08 08:33:39;;;;;;;5.95;1.52;;;;;;;7.33;39.64;96746.47;5032439;28;20018;-66
2022/02/08 08:36:05;;;;;;;3.22;1.20;;;;;;;6.99;39.90;96717.38;5014391;28;20030;-67
2022/02/08 08:38:33;;;;;;;3.30;1.20;;;;;;;7.36;39.31;96718.69;5028837;28;20022;-68
2022/02/08 08:51:42;;;;;;;6.05;1.23;;;;;;;7.66;37.25;96773.91;5032026;28;20091;-67
2022/02/08 08:54:08;;;;;;;2.90;1.00;;;;;;;7.35;38.03;96735.63;5011799;28;20048;-68
2022/02/08 08:56:38;;;;;;;5.95;1.02;;;;;;;7.81;36.97;96751.06;5031463;28;20033;-68
2022/02/08 08:59:05;;;;;;;3.33;0.82;;;;;;;7.88;36.47;96742.91;5031161;28;20177;-66
2022/02/08 09:01:30;;;;;;;5.03;1.20;;;;;;;8.25;36.03;96739.63;5013576;28;20022;-65
2022/02/08 09:03:56;;;;;;;7.93;1.23;;;;;;;8.26;36.00;96755.28;5013616;28;20029;-68
2022/02/08 09:06:21;;;;;;;5.05;1.10;;;;;;;8.17;35.53;96727.59;5013684;28;20176;-68
2022/02/08 09:08:47;;;;;;;3.63;0.80;;;;;;;8.42;34.87;96731.59;5029380;28;20061;-67
2022/02/08 09:13:45;;;;;;;1.60;0.82;;;;;;;8.93;33.57;96740.00;5031393;28;20040;-67
2022/02/08 09:30:08;;;;;;;3.22;0.95;;;;;;;9.16;32.16;96699.00;4997141;28;20037;-66
2022/02/08 09:34:45;;;;;;;3.90;1.00;;;;;;;9.47;32.74;96722.03;5031199;28;20574;-66
2022/02/08 09:37:14;;;;;;;1.80;0.70;;;;;;;8.99;31.83;96710.56;5030931;28;20023;-67
2022/02/08 09:39:41;;;;;;;1.77;0.88;;;;;;;8.69;32.69;96745.63;5022118;28;20037;-69
2022/02/08 09:42:07;;;;;;;3.15;0.88;;;;;;;9.70;31.37;96728.78;5030577;28;20250;-67
2022/02/08 09:44:34;;;;;;;1.40;0.70;;;;;;;10.36;30.38;96686.47;5030751;28;20037;-69
2022/02/08 09:47:04;;;;;;;2.28;0.80;;;;;;;10.00;30.05;96744.06;5030834;28;20032;-68
2022/02/08 09:49:31;;;;;;;4.93;1.00;;;;;;;8.99;30.90;96715.09;5013057;28;20080;-67
2022/02/08 09:51:57;;;;;;;3.50;0.95;;;;;;;9.54;29.74;96735.09;5030627;28;20041;-68
2022/02/08 09:54:22;;;;;;;1.45;0.30;;;;;;;8.13;31.31;96731.81;5022086;28;20037;-66
2022/02/08 09:56:48;;;;;;;3.67;0.80;;;;;;;8.40;30.78;96683.34;5012482;28;20091;-68
2022/02/08 09:59:14;;;;;;;1.92;1.00;;;;;;;8.11;31.27;96706.59;5012406;28;20389;-68
2022/02/08 10:01:39;;;;;;;1.95;0.82;;;;;;;7.99;31.41;96720.00;5012734;28;20025;-67
2022/02/08 10:04:05;;;;;;;2.45;1.08;;;;;;;8.84;29.71;96729.03;5030658;28;20029;-68
2022/02/08 10:06:31;;;;;;;1.05;0.47;;;;;;;8.95;30.32;96741.31;5012720;28;20053;-68
2022/02/08 10:09:09;;;;;;;1.63;0.57;;;;;;;8.68;30.51;96728.13;5008104;28;20061;-67
2022/02/08 10:22:40;;;;;;;3.85;0.88;;;;;;;9.20;29.11;96716.81;5030599;28;20540;-66
2022/02/08 10:25:10;;;;;;;3.05;0.68;;;;;;;9.32;28.34;96696.19;5023102;28;20036;-66
2022/02/08 10:27:48;;;;;;;1.23;0.60;;;;;;;8.66;28.88;96682.50;5012421;28;20124;-66
2022/02/08 10:38:49;;;;;;;2.20;0.43;;;;;;;9.63;28.84;96726.38;4947555;29;20039;-67
2022/02/08 10:41:21;;;;;;;2.92;0.52;;;;;;;9.62;28.58;96721.28;4992745;28;20021;-66
2022/02/08 10:44:05;;;;;;;;;;;;;;;10.30;27.89;96726.63;5030787;28;20029;-66
2022/02/08 10:46:32;;;;;;;3.15;0.85;;;;;;;10.13;27.68;96706.34;5012251;28;19939;-66
2022/02/08 10:49:06;;;;;;;1.40;0.80;;;;;;;10.68;27.86;96717.34;5029863;28;20641;-66
2022/02/08 10:51:39;;;;;;;2.20;0.73;;;;;;;10.29;27.80;96712.53;5030056;28;20091;-65
2022/02/08 10:54:11;;;;;;;4.07;0.68;;;;;;;10.67;28.46;96705.13;5026494;28;20053;-66
2022/02/08 10:56:39;;;;;;;2.85;0.88;;;;;;;11.04;28.11;96709.34;5021079;28;20026;-67
2022/02/08 10:59:19;;;;;;;1.52;0.60;;;;;;;10.39;28.58;96688.63;5029963;28;20030;-68
2022/02/08 11:01:57;;;;;;;3.90;0.80;;;;;;;10.31;28.48;96678.47;5029981;28;20048;-66
2022/02/08 11:04:46;;;;;;;4.15;0.85;;;;;;;9.88;29.32;96698.31;5030058;28;20474;-67
2022/02/08 11:07:40;;;;;;;3.10;0.90;;;;;;;9.80;29.23;96667.69;5015412;28;20109;-66
2022/02/08 11:10:45;;;;;;;2.65;0.70;;;;;;;10.50;28.59;96701.94;5028001;28;20033;-67
2022/02/08 11:13:41;;;;;;;2.65;1.00;;;;;;;9.96;28.37;96675.72;5031731;28;20132;-67
2022/02/08 11:16:06;;;;;;;3.75;1.27;;;;;;;10.65;28.05;96692.09;5030467;28;20107;-67
2022/02/08 11:21:29;;;;;;;4.20;0.63;;;;;;;11.13;27.12;96679.25;5033190;28;20268;-66
2022/02/08 11:26:43;;;;;;;2.47;0.75;;;;;;;9.51;28.91;96672.63;5029875;28;20030;-67
2022/02/08 11:29:19;;;;;;;5.60;1.08;;;;;;;10.31;27.98;96598.69;5015433;28;20030;-69
2022/02/08 11:31:51;;;;;;;1.95;0.90;;;;;;;11.08;27.17;96683.78;5033144;28;20021;-67
2022/02/08 11:54:25;;;;;;;1.38;0.50;;;;;;;10.50;26.26;96636.22;5032401;28;20021;-66
2022/02/08 12:04:42;;;;;;;2.03;0.50;;;;;;;9.68;26.74;96618.53;5032582;28;20025;-67
2022/02/08 12:07:14;;;;;;;7.03;0.82;;;;;;;11.27;25.97;96606.78;5032602;28;20044;-66
2022/02/08 12:56:12;;;;;;;1.95;0.20;;;;;;;11.19;25.21;96562.84;5018690;28;20359;-65
2022/02/08 13:02:10;;;;;;;1.08;0.73;;;;;;;12.10;24.19;96640.78;5011671;28;20044;-65
2022/02/08 13:32:50;;;;;;;1.60;0.50;;;;;;;12.94;24.99;96586.16;5031527;28;20091;-65
2022/02/08 14:23:40;;;;;;;0.38;0.22;;;;;;;12.23;25.25;96602.81;5030592;28;20100;-64
2022/02/08 15:09:17;;;;;;;0.47;0.20;;;;;;;12.63;25.37;96572.31;5013996;28;20036;-66
2022/02/08 15:12:27;;;;;;;1.42;0.28;;;;;;;12.34;25.43;96542.97;5024532;28;20029;-65
2022/02/08 15:14:36;;;;;;;3.60;0.40;;;;;;;13.02;24.88;96566.84;5022833;28;20033;-65
2022/02/08 15:17:02;;;;;;;2.03;0.28;;;;;;;12.05;26.49;96569.59;5033376;28;20036;-66
2022/02/08 15:19:27;;;;;;;0.52;0.20;;;;;;;11.23;27.42;96571.91;5033267;28;20021;-65
2022/02/08 15:21:53;;;;;;;1.73;0.47;;;;;;;11.49;26.32;96481.19;5033211;28;20118;-65
2022/02/08 15:24:18;;;;;;;1.48;0.30;;;;;;;12.07;26.21;96564.78;5033218;28;20025;-66
2022/02/08 15:26:47;;;;;;;1.50;0.90;;;;;;;12.56;25.97;96587.09;5031108;28;20126;-65
2022/02/08 15:29:15;;;;;;;0.80;0.40;;;;;;;12.31;26.11;96543.53;5033158;28;20025;-66
2022/02/08 15:31:40;;;;;;;4.30;0.60;;;;;;;13.47;24.90;96539.91;5033097;28;20634;-65
2022/02/08 15:34:05;;;;;;;0.65;0.40;;;;;;;11.98;26.89;96574.47;5032776;28;20033;-64
2022/02/08 15:36:31;;;;;;;2.72;0.50;;;;;;;12.30;26.48;96560.63;5032985;28;20026;-64
2022/02/08 15:39:02;;;;;;;2.38;0.47;;;;;;;12.26;26.58;96553.44;5032535;28;20100;-64
2022/02/08 15:41:28;;;;;;;4.80;0.60;;;;;;;12.72;26.21;96556.50;5021990;28;20034;-65
2022/02/08 15:43:54;;;;;;;2.28;0.63;;;;;;;13.43;25.80;96563.72;5008444;28;20452;-66
2022/02/08 15:46:24;;;;;;;1.33;0.40;;;;;;;13.04;26.04;96549.75;5032733;28;20477;-65
2022/02/08 15:48:50;;;;;;;1.15;0.50;;;;;;;12.54;27.50;96578.53;5032986;28;20029;-65
2022/02/08 15:51:28;;;;;;;3.22;0.40;;;;;;;12.37;27.50;96581.63;5031951;28;20017;-62
2022/02/08 16:09:32;;;;;;;1.70;0.45;;;;;;;11.67;29.16;96557.84;5032439;28;20049;-64
2022/02/08 16:27:47;;;;;;;0.98;0.77;;;;;;;12.33;28.16;96562.72;5015740;28;20037;-67
2022/02/08 16:54:31;;;;;;;3.70;0.88;;;;;;;11.74;28.49;96584.97;5032026;28;20124;-68
2022/02/08 16:57:15;;;;;;;;;;;;;;;12.25;28.48;96621.22;5026129;28;20021;-69
2022/02/08 16:59:43;;;;;;;5.05;1.17;;;;;;;11.62;28.77;96565.88;5014370;28;19978;-69
2022/02/08 17:02:09;;;;;;;4.20;0.90;;;;;;;11.73;28.89;96580.72;5031826;28;20031;-68
2022/02/08 17:04:35;;;;;;;4.70;1.08;;;;;;;11.37;29.67;96620.06;5031275;28;20021;-69
2022/02/08 17:07:04;;;;;;;1.63;1.02;;;;;;;11.88;28.51;96602.00;5013745;28;20127;-67
2022/02/08 17:09:46;;;;;;;2.97;1.40;;;;;;;10.92;29.68;96595.16;5031298;28;20645;-68
2022/02/08 17:14:53;;;;;;;3.85;1.80;;;;;;;10.46;29.97;96555.34;5031754;28;20367;-66
2022/02/08 17:46:24;;;;;;;2.92;1.95;;;;;;;10.03;33.26;96636.38;5030628;28;20456;-64
2022/02/08 17:48:50;;;;;;;2.38;1.90;;;;;;;9.76;33.23;96633.94;5030433;28;20039;-68
2022/02/08 17:51:16;;;;;;;4.28;1.83;;;;;;;10.23;32.74;96643.59;5013083;28;20030;-68
2022/02/08 17:53:42;;;;;;;3.20;1.80;;;;;;;10.25;32.72;96650.28;5030690;28;20113;-68
2022/02/08 17:56:07;;;;;;;3.85;2.00;;;;;;;10.84;31.79;96641.75;5031960;28;20101;-69
2022/02/08 17:58:36;;;;;;;5.22;2.25;;;;;;;10.57;31.69;96649.25;5031894;28;20029;-66
2022/02/08 18:01:02;;;;;;;7.00;2.42;;;;;;;10.91;31.23;96647.63;5030615;28;20129;-67
2022/02/08 18:03:27;;;;;;;4.57;2.25;;;;;;;10.91;31.55;96633.50;5030815;28;20533;-66
2022/02/08 18:05:53;;;;;;;4.47;2.47;;;;;;;10.68;31.76;96645.50;5031461;28;20035;-66
2022/02/08 18:08:21;;;;;;;12.00;3.22;;;;;;;10.52;32.05;96617.31;5030801;28;20028;-64
2022/02/08 18:10:48;;;;;;;7.32;2.55;;;;;;;10.15;32.60;96621.78;5030633;28;20385;-64
2022/02/08 18:13:18;;;;;;;7.03;2.67;;;;;;;10.72;31.35;96665.19;5032876;28;20049;-64
2022/02/08 18:15:44;;;;;;;6.60;2.60;;;;;;;10.62;32.01;96654.56;5029914;28;20048;-66
2022/02/08 18:21:14;;;;;;;3.60;2.50;;;;;;;10.44;31.97;96653.25;4975411;28;20125;-67
2022/02/08 18:50:14;;;;;;;3.90;1.70;;;;;;;10.24;32.49;96630.09;5042288;28;20087;-66
2022/02/08 19:22:08;;;;;;;4.43;1.80;;;;;;;9.17;34.65;96663.47;5030358;28;20045;-76
2022/02/08 19:24:34;;;;;;;6.25;2.00;;;;;;;9.30;34.10;96684.22;5012194;28;20571;-74
2022/02/08 19:27:01;;;;;;;4.95;2.50;;;;;;;9.22;33.96;96674.91;5036404;28;20069;-70
2022/02/08 19:29:29;;;;;;;6.72;2.03;;;;;;;9.37;33.42;96674.97;5036041;28;20025;-70
2022/02/08 19:31:55;;;;;;;2.92;1.33;;;;;;;9.17;33.63;96650.19;5033904;28;20110;-71
2022/02/08 19:34:20;;;;;;;5.40;1.60;;;;;;;9.15;33.85;96686.78;5033793;28;20064;-73
2022/02/08 19:36:49;;;;;;;3.50;1.60;;;;;;;9.47;33.59;96665.44;5015588;28;20088;-71
2022/02/08 19:39:15;;;;;;;3.08;1.60;;;;;;;9.33;33.11;96655.31;5015553;28;20033;-72
2022/02/08 19:41:41;;;;;;;3.38;1.55;;;;;;;9.33;33.71;96691.69;5035640;28;20065;-70
2022/02/08 19:44:07;;;;;;;3.25;1.70;;;;;;;9.26;33.84;96675.16;5027144;28;20491;-72
2022/02/08 19:46:34;;;;;;;3.17;1.92;;;;;;;9.41;33.39;96677.09;5053145;28;20036;-72
2022/02/08 19:49:00;;;;;;;3.25;1.60;;;;;;;9.31;33.82;96686.59;5053306;28;20025;-75
2022/02/08 19:51:26;;;;;;;2.10;1.52;;;;;;;8.80;34.30;96667.75;5053604;28;20029;-75
2022/02/08 19:53:54;;;;;;;2.72;1.65;;;;;;;8.90;34.31;96682.91;5053831;28;20557;-74
2022/02/08 19:56:26;;;;;;;5.32;1.98;;;;;;;9.22;33.32;96661.63;5035602;28;20036;-77
2022/02/08 19:58:55;;;;;;;;;;;;;;;9.15;33.84;96708.81;5040181;28;20470;-71
2022/02/08 20:01:27;;;;;;;5.18;2.00;;;;;;;9.04;34.31;96707.16;5033520;28;20400;-75
2022/02/08 20:03:58;;;;;;;2.70;1.67;;;;;;;9.15;34.21;96700.06;5015784;28;20026;-76
2022/02/08 20:06:24;;;;;;;5.13;2.05;;;;;;;9.11;33.68;96694.47;5033059;28;20026;-76
2022/02/08 20:08:49;;;;;;;3.75;2.78;;;;;;;9.10;33.94;96703.47;5033070;28;20033;-75
2022/02/08 20:11:14;;;;;;;2.50;2.13;;;;;;;8.75;34.14;96674.84;5015337;28;20541;-76